North Tonawanda, NY (14120)

4:31 PM EST on January 27, 2015 (GMT -0500)
APRSWXNET Pendleton NY US | Change Station
CLOSE
Current Station
Personal Weather Station
Location: North Tonawanda, NY
Elevation: 583 ft
Nearby Weather Stations

Elev 583 ft 43.10 °N, 78.80 °W | Updated 30 minutes ago

Mostly Cloudy
Mostly Cloudy
18 °F
Feels Like 11 °F
N
5
Wind Variable Wind from NNW
Gusts 9.0 mph

Today
High -- | Low -- °F
--% Chance of Precip.
Yesterday
High -- | Low -- °F
Precip. -- in
7:35 AM 5:20 PM
First Quarter, 57% visible
Pressure 30.12 in
Visibility 10.0 miles
Clouds Mostly Cloudy 9500 ft
Windchill 11 °F
Dew Point 9 °F
Humidity 66%
Rainfall 0.00 in
Snow Depth Not available.
UV 0 out of 12
Pollen .10 out of 12
Air Quality Not available.
Flu Activity Not available.
METAR KIAG 272053Z 02009KT 10SM BKN095 M08/M15 A3006 RMK AO2 SLP200 T10781150 53012

More Conditions Fewer Conditions

Pressure 30.12 in
Visibility 10.0 miles
Clouds Mostly Cloudy 9500 ft
Windchill 11 °F
Dew Point 9 °F
Humidity 66%
Rainfall 0.00 in
Snow Depth Not available.
UV 0 out of 12
Pollen .10 out of 12
Air Quality Not available.
Flu Activity Not available.
METAR KIAG 272053Z 02009KT 10SM BKN095 M08/M15 A3006 RMK AO2 SLP200 T10781150 53012

More Conditions Fewer Conditions

10-Day Weather Forecast

Almanac

Astronomy

Jan. 27, 2015 Rise Set
Actual Time
Civil Twilight
Nautical Twilight
Astronomical Twilight
Moon
Length of Visible Light
Length of Day
Tomorrow will be .
, % of the Moon is Illuminated

Today's Extremes

State Highs State Lows

Community

WunderPhotos

Upload Photos

1,790,918 photos uploaded!

WunderBlogs® & News

Nearby

Air Quality

  Air Quality AQ Index Pollutant
Not available.

Snow Depth

Station Depth Elevation

Earthquake Activity

City Distance Mag. Time & Date
Minimum magnitude displayed is 2.5.

Coastal Water Temperatures

Place Temperature

Nearby Weather Stations